createdAt,value
2022-10-02T00:02:16.156Z,11.60
2022-10-02T00:04:50.032Z,11.60
2022-10-02T00:07:21.821Z,11.60
2022-10-02T00:09:54.753Z,11.60
2022-10-02T00:12:27.309Z,11.50
2022-10-02T00:15:03.715Z,11.50
2022-10-02T00:17:38.941Z,11.50
2022-10-02T00:20:14.306Z,11.50
2022-10-02T00:22:52.382Z,11.50
2022-10-02T00:25:28.468Z,11.50
2022-10-02T00:28:09.442Z,11.50
2022-10-02T00:30:52.649Z,11.50
2022-10-02T00:33:28.220Z,11.50
2022-10-02T00:36:06.343Z,11.50
2022-10-02T00:38:45.738Z,11.50
2022-10-02T00:41:54.068Z,11.50
2022-10-02T00:44:57.175Z,11.50
2022-10-02T00:47:39.388Z,11.50
2022-10-02T00:50:25.139Z,11.50
2022-10-02T00:53:09.162Z,11.40
2022-10-02T00:55:51.543Z,11.40
2022-10-02T00:58:59.478Z,11.40
2022-10-02T01:01:36.854Z,11.40
2022-10-02T01:04:12.521Z,11.30
2022-10-02T01:06:41.365Z,11.30
2022-10-02T01:09:09.449Z,11.30
2022-10-02T01:11:38.663Z,11.20
2022-10-02T01:14:06.921Z,11.20
2022-10-02T01:16:35.513Z,11.20
2022-10-02T01:19:04.137Z,11.20
2022-10-02T01:21:40.298Z,11.10
2022-10-02T01:24:14.824Z,11.10
2022-10-02T01:26:48.125Z,11.10
2022-10-02T01:29:22.015Z,11.10
2022-10-02T01:31:50.059Z,11.00
2022-10-02T01:34:18.441Z,11.00
2022-10-02T01:36:46.738Z,11.10
2022-10-02T01:39:16.513Z,11.10
2022-10-02T01:41:46.372Z,11.00
2022-10-02T01:44:16.173Z,11.10
2022-10-02T01:46:54.676Z,11.00
2022-10-02T01:49:52.817Z,11.00
2022-10-02T01:52:45.797Z,11.00
2022-10-02T01:55:25.838Z,11.00
2022-10-02T01:58:20.639Z,11.00
2022-10-02T02:01:03.140Z,11.00
2022-10-02T02:03:39.384Z,11.00
2022-10-02T02:06:16.060Z,11.00
2022-10-02T02:08:51.395Z,11.00
2022-10-02T02:11:21.443Z,11.00
2022-10-02T02:13:55.473Z,11.00
2022-10-02T02:16:31.464Z,11.00
2022-10-02T02:19:05.751Z,11.00
2022-10-02T02:21:37.343Z,11.00
2022-10-02T02:24:10.531Z,11.00
2022-10-02T02:26:43.732Z,11.00
2022-10-02T02:29:15.602Z,11.00
2022-10-02T02:31:50.679Z,11.00
2022-10-02T02:34:22.165Z,11.00
2022-10-02T02:36:55.550Z,11.00
2022-10-02T02:39:29.994Z,11.00
2022-10-02T02:42:06.107Z,11.00
2022-10-02T02:44:41.295Z,11.10
2022-10-02T02:47:14.165Z,11.10
2022-10-02T02:49:50.895Z,11.00
2022-10-02T02:52:23.292Z,11.10
2022-10-02T02:54:57.208Z,11.10
2022-10-02T02:57:30.072Z,11.10
2022-10-02T03:00:03.956Z,11.10
2022-10-02T03:02:32.316Z,11.10
2022-10-02T03:05:00.393Z,11.10
2022-10-02T03:07:29.167Z,11.10
2022-10-02T03:10:07.318Z,11.10
2022-10-02T03:12:50.252Z,11.10
2022-10-02T03:15:29.586Z,11.10
2022-10-02T03:18:27.883Z,11.20
2022-10-02T03:21:10.838Z,11.20
2022-10-02T03:23:52.373Z,11.20
2022-10-02T03:26:27.983Z,11.20
2022-10-02T03:29:00.678Z,11.20
2022-10-02T03:31:33.385Z,11.20
2022-10-02T03:34:06.042Z,11.20
2022-10-02T03:36:35.182Z,11.20
2022-10-02T03:39:24.346Z,11.20
2022-10-02T03:41:58.759Z,11.30
2022-10-02T03:44:26.944Z,11.30
2022-10-02T03:46:56.374Z,11.30
2022-10-02T03:49:24.452Z,11.30
2022-10-02T03:51:52.539Z,11.40
2022-10-02T03:54:22.520Z,11.40
2022-10-02T03:56:56.822Z,11.40
2022-10-02T03:59:42.338Z,11.40
2022-10-02T04:02:20.588Z,11.40
2022-10-02T04:04:53.989Z,11.40
2022-10-02T04:07:27.450Z,11.40
2022-10-02T04:10:04.801Z,11.40
2022-10-02T04:12:35.771Z,11.40
2022-10-02T04:15:10.750Z,11.30
2022-10-02T04:17:45.232Z,11.40
2022-10-02T04:20:18.757Z,11.30
2022-10-02T04:22:53.991Z,11.30
2022-10-02T04:25:25.125Z,11.30
2022-10-02T04:28:00.885Z,11.30
2022-10-02T04:30:33.052Z,11.30
2022-10-02T04:33:12.692Z,11.30
2022-10-02T04:35:51.290Z,11.30
2022-10-02T04:38:51.771Z,11.40
2022-10-02T04:41:46.072Z,11.30
2022-10-02T04:44:27.268Z,11.30
2022-10-02T04:47:09.815Z,11.30
2022-10-02T04:50:07.535Z,11.30
2022-10-02T04:52:49.019Z,11.40
2022-10-02T04:55:32.006Z,11.40
2022-10-02T04:58:22.480Z,11.40
2022-10-02T05:01:02.866Z,11.40
2022-10-02T05:03:50.071Z,11.40
2022-10-02T05:06:40.305Z,11.40
2022-10-02T05:09:16.343Z,11.40
2022-10-02T05:12:05.746Z,11.40
2022-10-02T05:14:50.914Z,11.40
2022-10-02T05:17:41.164Z,11.40
2022-10-02T05:20:29.443Z,11.40
2022-10-02T05:23:12.023Z,11.40
2022-10-02T05:26:20.899Z,11.40
2022-10-02T05:29:27.135Z,11.50
2022-10-02T05:32:17.244Z,11.50
2022-10-02T05:34:59.962Z,11.50
2022-10-02T05:37:51.678Z,11.40
2022-10-02T05:40:27.481Z,11.50
2022-10-02T05:43:03.353Z,11.40
2022-10-02T05:45:37.688Z,11.40
2022-10-02T05:48:14.528Z,11.40
2022-10-02T05:50:44.089Z,11.40
2022-10-02T05:53:26.340Z,11.40
2022-10-02T05:56:00.852Z,11.40
2022-10-02T05:58:35.664Z,11.40
2022-10-02T06:01:09.151Z,11.40
2022-10-02T06:03:43.506Z,11.40
2022-10-02T06:06:17.238Z,11.40
2022-10-02T06:09:02.026Z,11.40
2022-10-02T06:11:36.337Z,11.40
2022-10-02T06:14:10.401Z,11.40
2022-10-02T06:16:42.483Z,11.40
2022-10-02T06:19:15.648Z,11.50
2022-10-02T06:21:50.775Z,11.50
2022-10-02T06:24:25.482Z,11.50
2022-10-02T06:27:03.694Z,11.50
2022-10-02T06:29:38.078Z,11.50
2022-10-02T06:32:15.884Z,11.40
2022-10-02T06:34:48.387Z,11.50
2022-10-02T06:37:35.880Z,11.40
2022-10-02T06:40:20.865Z,11.50
2022-10-02T06:43:02.902Z,11.50
2022-10-02T06:45:42.591Z,11.40
2022-10-02T06:48:25.811Z,11.50
2022-10-02T06:51:01.485Z,11.40
2022-10-02T06:53:53.325Z,11.40
2022-10-02T06:56:38.059Z,11.30
2022-10-02T06:59:22.592Z,11.30
2022-10-02T07:02:01.425Z,11.30
2022-10-02T07:04:52.022Z,11.20
2022-10-02T07:07:32.171Z,11.20
2022-10-02T07:10:24.644Z,11.20
2022-10-02T07:13:17.944Z,11.20
2022-10-02T07:16:30.658Z,11.20
2022-10-02T07:19:25.119Z,11.30
2022-10-02T07:22:07.846Z,11.20
2022-10-02T07:25:10.261Z,11.30
2022-10-02T07:27:48.858Z,11.30
2022-10-02T07:30:18.975Z,11.40
2022-10-02T07:32:49.377Z,11.50
2022-10-02T07:35:41.936Z,11.60
2022-10-02T07:38:43.095Z,11.60
2022-10-02T07:41:26.539Z,11.70
2022-10-02T07:44:09.488Z,11.70
2022-10-02T07:46:49.788Z,11.80
2022-10-02T07:49:39.291Z,11.80
2022-10-02T07:52:19.706Z,11.90
2022-10-02T07:55:11.716Z,11.90
2022-10-02T07:57:44.460Z,12.00
2022-10-02T08:00:17.933Z,12.00
2022-10-02T08:02:51.723Z,12.00
2022-10-02T08:05:26.583Z,12.00
2022-10-02T08:08:01.391Z,12.00
2022-10-02T08:10:34.818Z,12.10
2022-10-02T08:13:11.082Z,12.10
2022-10-02T08:15:44.097Z,12.10
2022-10-02T08:18:33.735Z,12.10
2022-10-02T08:21:04.678Z,12.10
2022-10-02T08:23:37.676Z,12.10
2022-10-02T08:26:11.733Z,12.20
2022-10-02T08:28:48.319Z,12.20
2022-10-02T08:31:17.000Z,12.20
2022-10-02T08:33:47.466Z,12.20
2022-10-02T08:36:39.362Z,12.20
2022-10-02T08:39:27.092Z,12.20
2022-10-02T08:42:37.258Z,12.30
2022-10-02T08:45:39.240Z,12.30
2022-10-02T08:48:55.231Z,12.40
2022-10-02T08:51:40.987Z,12.40
2022-10-02T08:54:53.836Z,12.50
2022-10-02T08:57:58.406Z,12.60
2022-10-02T09:00:33.111Z,12.60
2022-10-02T09:03:33.463Z,12.60
2022-10-02T09:06:34.871Z,12.70
2022-10-02T09:09:42.458Z,12.70
2022-10-02T09:12:59.594Z,12.80
2022-10-02T09:15:44.693Z,12.90
2022-10-02T09:18:19.811Z,13.00
2022-10-02T09:21:16.593Z,13.00
2022-10-02T09:24:31.311Z,13.10
2022-10-02T09:27:31.831Z,13.10
2022-10-02T09:30:27.425Z,13.10
2022-10-02T09:33:31.431Z,13.10
2022-10-02T09:36:53.444Z,13.10
2022-10-02T09:40:04.608Z,13.20
2022-10-02T09:42:58.591Z,13.20
2022-10-02T09:45:55.353Z,13.40
2022-10-02T09:49:11.613Z,13.40
2022-10-02T09:52:08.662Z,13.40
2022-10-02T09:55:14.117Z,13.40
2022-10-02T09:58:16.145Z,13.30
2022-10-02T10:01:08.500Z,13.30
2022-10-02T10:04:12.695Z,13.30
2022-10-02T10:07:19.190Z,13.30
2022-10-02T10:10:36.709Z,13.40
2022-10-02T10:13:39.451Z,13.50
2022-10-02T10:16:57.712Z,13.70
2022-10-02T10:20:08.843Z,13.70
2022-10-02T10:23:09.093Z,13.80
2022-10-02T10:26:15.136Z,13.80
2022-10-02T10:29:21.256Z,13.90
2022-10-02T10:32:18.929Z,13.80
2022-10-02T10:35:25.554Z,13.80
2022-10-02T10:38:35.372Z,13.70
2022-10-02T10:41:46.534Z,13.60
2022-10-02T10:44:56.345Z,13.60
2022-10-02T10:47:50.522Z,13.60
2022-10-02T10:50:29.895Z,13.80
2022-10-02T10:53:33.421Z,13.90
2022-10-02T10:56:24.852Z,14.10
2022-10-02T10:59:25.516Z,14.40
2022-10-02T11:02:14.646Z,14.80
2022-10-02T11:05:12.868Z,14.90
2022-10-02T11:08:02.238Z,15.10
2022-10-02T11:10:47.591Z,15.20
2022-10-02T11:13:31.173Z,15.40
2022-10-02T11:16:20.976Z,15.20
2022-10-02T11:19:27.112Z,15.30
2022-10-02T11:22:33.439Z,15.20
2022-10-02T11:25:17.304Z,15.10
2022-10-02T11:28:22.454Z,15.10
2022-10-02T11:31:17.456Z,15.20
2022-10-02T11:34:17.333Z,15.10
2022-10-02T11:37:00.298Z,15.20
2022-10-02T11:39:56.811Z,15.30
2022-10-02T11:42:43.529Z,15.60
2022-10-02T11:45:51.750Z,15.80
2022-10-02T11:48:48.149Z,16.00
2022-10-02T11:51:51.157Z,16.20
2022-10-02T11:54:44.889Z,16.40
2022-10-02T11:57:33.099Z,16.70
